Terminal Aerodrome Forecast
Issued by NWS

Home | Current Version | Previous Version | Text Only | Print | Product List | Glossary On
Versions: 1 2 3 4 5 6 7 8 9 10 11 12
000
FTUS43 KFGF 281139
TAFDVL
TAF
KDVL 281139Z 2812/2912 02005KT P6SM -RA VCSH BKN060
     FM281400 32012KT P6SM VCSH BKN090
     FM281700 32015G21KT P6SM SCT060
     FM290100 33008KT P6SM FEW250
     FM290500 35004KT P6SM FEW200
     FM291000 07004KT P6SM SCT120=

USA.gov is the U.S. government's official web portal to all federal, state and local government web resources and services.